createdAt,value
2019-03-26T00:00:12.560Z,1027.02
2019-03-26T00:01:12.498Z,1026.99
2019-03-26T00:02:12.391Z,1027.01
2019-03-26T00:03:12.312Z,1027.03
2019-03-26T00:04:12.226Z,1027.07
2019-03-26T00:05:12.136Z,1027.03
2019-03-26T00:06:12.066Z,1027.05
2019-03-26T00:07:11.973Z,1027.07
2019-03-26T00:08:11.881Z,1027.04
2019-03-26T00:09:11.806Z,1027.06
2019-03-26T00:10:11.717Z,1027.09
2019-03-26T00:11:11.652Z,1027.08
2019-03-26T00:12:11.543Z,1027.12
2019-03-26T00:13:11.467Z,1027.14
2019-03-26T00:14:11.380Z,1027.12
2019-03-26T00:15:11.296Z,1027.11
2019-03-26T00:16:11.224Z,1027.15
2019-03-26T00:17:11.126Z,1027.13
2019-03-26T00:18:11.035Z,1027.15
2019-03-26T00:19:10.954Z,1027.14
2019-03-26T00:20:10.876Z,1027.16
2019-03-26T00:21:10.815Z,1027.13
2019-03-26T00:22:10.698Z,1027.13
2019-03-26T00:23:10.616Z,1027.08
2019-03-26T00:24:10.526Z,1027.12
2019-03-26T00:25:10.446Z,1027.14
2019-03-26T00:26:10.378Z,1027.10
2019-03-26T00:27:10.275Z,1027.11
2019-03-26T00:28:10.197Z,1027.15
2019-03-26T00:29:10.111Z,1027.15
2019-03-26T00:30:10.021Z,1027.14
2019-03-26T00:31:09.958Z,1027.13
2019-03-26T00:32:09.848Z,1027.16
2019-03-26T00:33:09.763Z,1027.11
2019-03-26T00:34:19.260Z,1027.06
2019-03-26T00:35:09.593Z,1027.05
2019-03-26T00:36:09.520Z,1027.01
2019-03-26T00:37:09.431Z,1027.04
2019-03-26T00:38:09.340Z,1027.06
2019-03-26T00:39:09.257Z,1027.04
2019-03-26T00:40:09.173Z,1027.06
2019-03-26T00:41:09.124Z,1027.06
2019-03-26T00:42:09.001Z,1027.05
2019-03-26T00:43:08.933Z,1027.13
2019-03-26T00:44:08.851Z,1027.05
2019-03-26T00:45:08.751Z,1027.09
2019-03-26T00:46:09.687Z,1027.10
2019-03-26T00:47:08.597Z,1027.05
2019-03-26T00:48:08.494Z,1027.09
2019-03-26T00:49:08.407Z,1027.03
2019-03-26T00:50:08.327Z,1027.09
2019-03-26T00:51:08.259Z,1027.11
2019-03-26T00:52:08.149Z,1027.12
2019-03-26T00:53:08.082Z,1027.14
2019-03-26T00:54:07.984Z,1027.13
2019-03-26T00:55:07.904Z,1027.14
2019-03-26T00:56:07.832Z,1027.16
2019-03-26T00:57:07.738Z,1027.15
2019-03-26T00:58:07.644Z,1027.15
2019-03-26T00:59:07.579Z,1027.18
2019-03-26T01:00:07.484Z,1027.16
2019-03-26T01:01:07.408Z,1027.20
2019-03-26T01:02:07.305Z,1027.26
2019-03-26T01:03:07.223Z,1027.18
2019-03-26T01:04:07.138Z,1027.27
2019-03-26T01:05:07.050Z,1027.27
2019-03-26T01:06:06.977Z,1027.28
2019-03-26T01:07:06.891Z,1027.29
2019-03-26T01:08:06.795Z,1027.30
2019-03-26T01:09:06.713Z,1027.29
2019-03-26T01:10:06.626Z,1027.27
2019-03-26T01:11:06.629Z,1027.26
2019-03-26T01:12:06.457Z,1027.24
2019-03-26T01:13:06.383Z,1027.28
2019-03-26T01:14:06.281Z,1027.24
2019-03-26T01:15:06.206Z,1027.20
2019-03-26T01:16:06.129Z,1027.23
2019-03-26T01:17:06.041Z,1027.22
2019-03-26T01:18:05.948Z,1027.25
2019-03-26T01:19:05.872Z,1027.19
2019-03-26T01:20:05.779Z,1027.23
2019-03-26T01:21:05.710Z,1027.25
2019-03-26T01:22:05.603Z,1027.20
2019-03-26T01:23:05.536Z,1027.22
2019-03-26T01:24:05.437Z,1027.24
2019-03-26T01:25:05.359Z,1027.21
2019-03-26T01:26:05.285Z,1027.21
2019-03-26T01:27:05.193Z,1027.22
2019-03-26T01:28:05.096Z,1027.23
2019-03-26T01:29:05.012Z,1027.22
2019-03-26T01:30:04.940Z,1027.25
2019-03-26T01:31:04.856Z,1027.24
2019-03-26T01:32:04.757Z,1027.23
2019-03-26T01:33:04.682Z,1027.29
2019-03-26T01:34:04.631Z,1027.28
2019-03-26T01:35:04.504Z,1027.33
2019-03-26T01:36:04.846Z,1027.28
2019-03-26T01:37:04.332Z,1027.37
2019-03-26T01:38:04.247Z,1027.40
2019-03-26T01:39:04.174Z,1027.37
2019-03-26T01:40:04.076Z,1027.40
2019-03-26T01:41:04.001Z,1027.40
2019-03-26T01:42:03.914Z,1027.38
2019-03-26T01:43:03.825Z,1027.42
2019-03-26T01:44:03.741Z,1027.40
2019-03-26T01:45:03.660Z,1027.40
2019-03-26T01:46:03.589Z,1027.40
2019-03-26T01:47:03.482Z,1027.42
2019-03-26T01:48:03.428Z,1027.40
2019-03-26T01:49:03.316Z,1027.39
2019-03-26T01:50:03.233Z,1027.39
2019-03-26T01:51:03.187Z,1027.43
2019-03-26T01:52:03.064Z,1027.37
2019-03-26T01:53:03.003Z,1027.42
2019-03-26T01:54:02.898Z,1027.35
2019-03-26T01:55:02.820Z,1027.38
2019-03-26T01:56:02.740Z,1027.35
2019-03-26T01:57:02.651Z,1027.35
2019-03-26T01:58:02.559Z,1027.33
2019-03-26T01:59:02.468Z,1027.35
2019-03-26T02:00:02.381Z,1027.37
2019-03-26T02:01:02.321Z,1027.36
2019-03-26T02:02:02.214Z,1027.35
2019-03-26T02:03:02.130Z,1027.34
2019-03-26T02:04:02.043Z,1027.36
2019-03-26T02:05:01.962Z,1027.35
2019-03-26T02:06:01.892Z,1027.38
2019-03-26T02:07:01.803Z,1027.39
2019-03-26T02:08:01.703Z,1027.37
2019-03-26T02:09:01.612Z,1027.37
2019-03-26T02:10:01.539Z,1027.37
2019-03-26T02:11:01.458Z,1027.38
2019-03-26T02:12:01.364Z,1027.41
2019-03-26T02:13:01.282Z,1027.45
2019-03-26T02:14:01.189Z,1027.43
2019-03-26T02:15:01.105Z,1027.40
2019-03-26T02:16:01.060Z,1027.47
2019-03-26T02:17:00.933Z,1027.44
2019-03-26T02:18:00.932Z,1027.41
2019-03-26T02:19:00.768Z,1027.44
2019-03-26T02:20:00.681Z,1027.46
2019-03-26T02:21:00.599Z,1027.47
2019-03-26T02:22:00.531Z,1027.48
2019-03-26T02:23:00.425Z,1027.50
2019-03-26T02:24:00.343Z,1027.48
2019-03-26T02:25:00.367Z,1027.50
2019-03-26T02:26:00.170Z,1027.44
2019-03-26T02:27:00.099Z,1027.42
2019-03-26T02:28:00.008Z,1027.45
2019-03-26T02:28:59.913Z,1027.47
2019-03-26T02:29:59.830Z,1027.47
2019-03-26T02:30:59.751Z,1027.48
2019-03-26T02:31:59.679Z,1027.45
2019-03-26T02:32:59.581Z,1027.45
2019-03-26T02:33:59.495Z,1027.43
2019-03-26T02:35:16.318Z,1027.43
2019-03-26T02:35:59.330Z,1027.42
2019-03-26T02:36:59.253Z,1027.40
2019-03-26T02:37:59.153Z,1027.40
2019-03-26T02:38:59.084Z,1027.47
2019-03-26T02:39:58.994Z,1027.49
2019-03-26T02:40:58.900Z,1027.49
2019-03-26T02:41:58.844Z,1027.52
2019-03-26T02:42:58.731Z,1027.53
2019-03-26T02:43:58.642Z,1027.55
2019-03-26T02:44:58.567Z,1027.55
2019-03-26T02:45:58.473Z,1027.49
2019-03-26T02:46:58.414Z,1027.50
2019-03-26T02:47:58.302Z,1027.48
2019-03-26T02:48:58.253Z,1027.48
2019-03-26T02:49:58.135Z,1027.44
2019-03-26T02:50:58.094Z,1027.37
2019-03-26T02:51:57.995Z,1027.41
2019-03-26T02:52:57.880Z,1027.37
2019-03-26T02:53:57.802Z,1027.41
2019-03-26T02:54:57.722Z,1027.41
2019-03-26T02:55:57.625Z,1027.33
2019-03-26T02:56:57.554Z,1027.34
2019-03-26T02:57:57.476Z,1027.35
2019-03-26T02:58:57.388Z,1027.35
2019-03-26T02:59:57.293Z,1027.34
2019-03-26T03:00:57.205Z,1027.33
2019-03-26T03:01:57.161Z,1027.37
2019-03-26T03:02:57.037Z,1027.38
2019-03-26T03:03:56.953Z,1027.38
2019-03-26T03:04:56.864Z,1027.42
2019-03-26T03:05:56.796Z,1027.40
2019-03-26T03:06:56.710Z,1027.44
2019-03-26T03:07:56.605Z,1027.44
2019-03-26T03:08:56.527Z,1027.45
2019-03-26T03:09:56.446Z,1027.40
2019-03-26T03:10:56.356Z,1027.39
2019-03-26T03:11:56.282Z,1027.39
2019-03-26T03:12:56.199Z,1027.36
2019-03-26T03:13:56.097Z,1027.39
2019-03-26T03:14:56.018Z,1027.44
2019-03-26T03:15:55.961Z,1027.46
2019-03-26T03:16:55.858Z,1027.45
2019-03-26T03:17:55.803Z,1027.47
2019-03-26T03:18:55.680Z,1027.44
2019-03-26T03:19:55.600Z,1027.40
2019-03-26T03:20:55.509Z,1027.40
2019-03-26T03:21:55.446Z,1027.39
2019-03-26T03:22:55.346Z,1027.35
2019-03-26T03:23:55.257Z,1027.41
2019-03-26T03:24:55.169Z,1027.40
2019-03-26T03:25:55.135Z,1027.35
2019-03-26T03:26:55.017Z,1027.39
2019-03-26T03:27:54.912Z,1027.36
2019-03-26T03:28:54.829Z,1027.36
2019-03-26T03:29:54.742Z,1027.40
2019-03-26T03:30:54.663Z,1027.36
2019-03-26T03:31:54.585Z,1027.38
2019-03-26T03:32:54.504Z,1027.41
2019-03-26T03:33:54.405Z,1027.39
2019-03-26T03:34:54.324Z,1027.45
2019-03-26T03:35:54.235Z,1027.54
2019-03-26T03:36:54.165Z,1027.47
2019-03-26T03:37:54.070Z,1027.50
2019-03-26T03:38:53.980Z,1027.55
2019-03-26T03:39:53.897Z,1027.54
2019-03-26T03:40:53.823Z,1027.57
2019-03-26T03:41:53.737Z,1027.59
2019-03-26T03:42:53.643Z,1027.58
2019-03-26T03:43:53.558Z,1027.62
2019-03-26T03:44:53.486Z,1027.63
2019-03-26T03:45:53.388Z,1027.61
2019-03-26T03:46:53.328Z,1027.60
2019-03-26T03:47:53.219Z,1027.61
2019-03-26T03:48:53.129Z,1027.60
2019-03-26T03:49:53.044Z,1027.57
2019-03-26T03:50:52.969Z,1027.63
2019-03-26T03:51:52.904Z,1027.63
2019-03-26T03:52:52.796Z,1027.61
2019-03-26T03:53:52.700Z,1027.58
2019-03-26T03:54:52.633Z,1027.54
2019-03-26T03:55:52.546Z,1027.58
2019-03-26T03:56:52.473Z,1027.55
2019-03-26T03:57:53.054Z,1027.56
2019-03-26T03:58:52.286Z,1027.57
2019-03-26T03:59:52.202Z,1027.58
2019-03-26T04:00:52.114Z,1027.65
2019-03-26T04:01:52.038Z,1027.63
2019-03-26T04:02:51.948Z,1027.65
2019-03-26T04:03:51.856Z,1027.63
2019-03-26T04:04:51.782Z,1027.65
2019-03-26T04:06:07.769Z,1027.64
2019-03-26T04:06:51.626Z,1027.62
2019-03-26T04:07:51.514Z,1027.70
2019-03-26T04:08:51.441Z,1027.69
2019-03-26T04:09:51.351Z,1027.67
2019-03-26T04:10:51.271Z,1027.70
2019-03-26T04:11:51.189Z,1027.66
2019-03-26T04:12:51.102Z,1027.65
2019-03-26T04:13:51.014Z,1027.66
2019-03-26T04:14:50.945Z,1027.65
2019-03-26T04:15:50.833Z,1027.63
2019-03-26T04:16:50.778Z,1027.61
2019-03-26T04:17:50.675Z,1027.62
2019-03-26T04:18:50.582Z,1027.63
2019-03-26T04:19:50.494Z,1027.63
2019-03-26T04:20:50.422Z,1027.65
2019-03-26T04:21:50.362Z,1027.62
2019-03-26T04:22:50.260Z,1027.58
2019-03-26T04:23:50.167Z,1027.54
2019-03-26T04:24:50.081Z,1027.49
2019-03-26T04:25:50.002Z,1027.53
2019-03-26T04:26:49.930Z,1027.55
2019-03-26T04:27:49.829Z,1027.59
2019-03-26T04:28:49.738Z,1027.57
2019-03-26T04:29:49.652Z,1027.55
2019-03-26T04:30:49.567Z,1027.62
2019-03-26T04:31:49.491Z,1027.60
2019-03-26T04:32:49.397Z,1027.57
2019-03-26T04:33:49.310Z,1027.49
2019-03-26T04:34:49.230Z,1027.56
2019-03-26T04:35:49.140Z,1027.62
2019-03-26T04:36:49.158Z,1027.57
2019-03-26T04:37:48.977Z,1027.59
2019-03-26T04:38:48.891Z,1027.57
2019-03-26T04:39:48.827Z,1027.57
2019-03-26T04:40:48.718Z,1027.58
2019-03-26T04:41:48.644Z,1027.54
2019-03-26T04:42:48.552Z,1027.54
2019-03-26T04:43:48.460Z,1027.52
2019-03-26T04:44:48.413Z,1027.55
2019-03-26T04:45:48.291Z,1027.53
2019-03-26T04:46:48.228Z,1027.58
2019-03-26T04:47:48.170Z,1027.56
2019-03-26T04:48:48.046Z,1027.56
2019-03-26T04:49:47.950Z,1027.59
2019-03-26T04:50:47.870Z,1027.61
2019-03-26T04:51:47.789Z,1027.58
2019-03-26T04:52:47.698Z,1027.61
2019-03-26T04:53:47.613Z,1027.61
2019-03-26T04:54:47.522Z,1027.60
2019-03-26T04:55:47.442Z,1027.64
2019-03-26T04:56:47.375Z,1027.65
2019-03-26T04:57:47.268Z,1027.67
2019-03-26T04:58:47.198Z,1027.65
2019-03-26T04:59:47.206Z,1027.64
2019-03-26T05:00:47.023Z,1027.64
2019-03-26T05:01:46.942Z,1027.63
2019-03-26T05:02:46.868Z,1027.61
2019-03-26T05:03:46.765Z,1027.62
2019-03-26T05:04:46.680Z,1027.60
2019-03-26T05:05:46.601Z,1027.59
2019-03-26T05:06:46.529Z,1027.61
2019-03-26T05:07:46.419Z,1027.61
2019-03-26T05:08:46.339Z,1027.56
2019-03-26T05:09:46.248Z,1027.59
2019-03-26T05:10:49.061Z,1027.60
2019-03-26T05:11:46.099Z,1027.59
2019-03-26T05:12:45.994Z,1027.62
2019-03-26T05:13:45.917Z,1027.62
2019-03-26T05:14:45.830Z,1027.65
2019-03-26T05:15:45.753Z,1027.61
2019-03-26T05:16:45.682Z,1027.68
2019-03-26T05:17:45.580Z,1027.71
2019-03-26T05:18:45.499Z,1027.72
2019-03-26T05:19:45.404Z,1027.69
2019-03-26T05:20:45.318Z,1027.64
2019-03-26T05:21:45.250Z,1027.59
2019-03-26T05:22:45.145Z,1027.59
2019-03-26T05:23:45.060Z,1027.59
2019-03-26T05:24:44.991Z,1027.56
2019-03-26T05:25:44.899Z,1027.57
2019-03-26T05:26:44.824Z,1027.53
2019-03-26T05:27:45.811Z,1027.57
2019-03-26T05:28:44.636Z,1027.53
2019-03-26T05:29:44.562Z,1027.57
2019-03-26T05:30:44.475Z,1027.56
2019-03-26T05:31:44.408Z,1027.58
2019-03-26T05:32:44.326Z,1027.56
2019-03-26T05:33:44.217Z,1027.53
2019-03-26T05:34:44.149Z,1027.55
2019-03-26T05:35:44.050Z,1027.58
2019-03-26T05:36:51.212Z,1027.56
2019-03-26T05:37:43.883Z,1027.61
2019-03-26T05:38:43.792Z,1027.60
2019-03-26T05:39:43.708Z,1027.65
2019-03-26T05:40:43.616Z,1027.63
2019-03-26T05:41:43.551Z,1027.62
2019-03-26T05:42:43.453Z,1027.62
2019-03-26T05:43:43.372Z,1027.58
2019-03-26T05:44:43.276Z,1027.61
2019-03-26T05:45:43.197Z,1027.60
2019-03-26T05:46:43.123Z,1027.62
2019-03-26T05:47:43.039Z,1027.62
2019-03-26T05:48:42.938Z,1027.64
2019-03-26T05:49:42.859Z,1027.64
2019-03-26T05:50:43.707Z,1027.63
2019-03-26T05:51:42.723Z,1027.67
2019-03-26T05:52:42.599Z,1027.72
2019-03-26T05:53:42.516Z,1027.75
2019-03-26T05:54:42.440Z,1027.79
2019-03-26T05:55:42.368Z,1027.77
2019-03-26T05:56:42.684Z,1027.83
2019-03-26T05:57:42.218Z,1027.83
2019-03-26T05:58:42.090Z,1027.83
2019-03-26T05:59:42.014Z,1027.90
2019-03-26T06:00:41.925Z,1027.86
2019-03-26T06:01:41.837Z,1027.85
2019-03-26T06:02:41.806Z,1027.86
2019-03-26T06:03:41.672Z,1027.85
2019-03-26T06:04:41.581Z,1027.90
2019-03-26T06:05:41.502Z,1027.83
2019-03-26T06:06:41.425Z,1027.86
2019-03-26T06:07:41.351Z,1027.84
2019-03-26T06:08:41.245Z,1027.83
2019-03-26T06:09:41.163Z,1027.82
2019-03-26T06:10:41.071Z,1027.83
2019-03-26T06:11:40.997Z,1027.85
2019-03-26T06:12:40.915Z,1027.85
2019-03-26T06:13:40.819Z,1027.84
2019-03-26T06:14:40.738Z,1027.84
2019-03-26T06:15:40.646Z,1027.83
2019-03-26T06:16:40.565Z,1027.87
2019-03-26T06:17:40.501Z,1027.88
2019-03-26T06:18:40.961Z,1027.88
2019-03-26T06:19:40.311Z,1027.90
2019-03-26T06:20:40.234Z,1027.95
2019-03-26T06:21:40.140Z,1027.98
2019-03-26T06:22:40.070Z,1027.98
2019-03-26T06:23:39.976Z,1027.99
2019-03-26T06:24:39.889Z,1028.02
2019-03-26T06:25:39.806Z,1028.00
2019-03-26T06:26:39.723Z,1028.05
2019-03-26T06:27:39.652Z,1028.09
2019-03-26T06:28:39.553Z,1028.04
2019-03-26T06:29:39.477Z,1028.10
2019-03-26T06:30:39.384Z,1028.08
2019-03-26T06:31:39.296Z,1028.06
2019-03-26T06:32:39.273Z,1028.12
2019-03-26T06:33:39.125Z,1028.15
2019-03-26T06:34:39.040Z,1028.17
2019-03-26T06:35:38.961Z,1028.20
2019-03-26T06:36:38.878Z,1028.22
2019-03-26T06:37:38.804Z,1028.25
2019-03-26T06:38:38.717Z,1028.27
2019-03-26T06:39:38.728Z,1028.29
2019-03-26T06:40:38.533Z,1028.25
2019-03-26T06:41:38.460Z,1028.28
2019-03-26T06:42:38.377Z,1028.27
2019-03-26T06:43:38.282Z,1028.31
2019-03-26T06:44:38.201Z,1028.36
2019-03-26T06:45:38.108Z,1028.39
2019-03-26T06:46:38.029Z,1028.37
2019-03-26T06:47:37.977Z,1028.35
2019-03-26T06:48:37.864Z,1028.43
2019-03-26T06:49:37.775Z,1028.41
2019-03-26T06:50:37.691Z,1028.42
2019-03-26T06:51:37.604Z,1028.45
2019-03-26T06:52:37.548Z,1028.39
2019-03-26T06:53:37.447Z,1028.42
2019-03-26T06:54:37.349Z,1028.49
2019-03-26T06:55:37.264Z,1028.49
2019-03-26T06:56:37.185Z,1028.53
2019-03-26T06:57:37.112Z,1028.51
2019-03-26T06:58:37.015Z,1028.53
2019-03-26T06:59:36.934Z,1028.51
2019-03-26T07:00:36.845Z,1028.49
2019-03-26T07:01:36.784Z,1028.52
2019-03-26T07:02:36.704Z,1028.54
2019-03-26T07:03:36.595Z,1028.46
2019-03-26T07:04:36.513Z,1028.49
2019-03-26T07:05:36.423Z,1028.54
2019-03-26T07:06:36.343Z,1028.56
2019-03-26T07:07:36.279Z,1028.56
2019-03-26T07:08:36.170Z,1028.59
2019-03-26T07:09:36.098Z,1028.64
2019-03-26T07:10:36.002Z,1028.64
2019-03-26T07:11:35.930Z,1028.63
2019-03-26T07:12:35.849Z,1028.60
2019-03-26T07:13:35.750Z,1028.63
2019-03-26T07:14:35.670Z,1028.62
2019-03-26T07:15:35.583Z,1028.66
2019-03-26T07:16:35.498Z,1028.57
2019-03-26T07:17:35.435Z,1028.63
2019-03-26T07:18:35.328Z,1028.67
2019-03-26T07:19:35.257Z,1028.68
2019-03-26T07:20:35.159Z,1028.70
2019-03-26T07:21:35.078Z,1028.72
2019-03-26T07:22:35.021Z,1028.67
2019-03-26T07:23:34.919Z,1028.70
2019-03-26T07:24:34.829Z,1028.67
2019-03-26T07:25:34.750Z,1028.70
2019-03-26T07:26:34.651Z,1028.68
2019-03-26T07:27:34.592Z,1028.65
2019-03-26T07:28:34.484Z,1028.64
2019-03-26T07:29:34.407Z,1028.64
2019-03-26T07:30:34.324Z,1028.67
2019-03-26T07:31:34.247Z,1028.67
2019-03-26T07:32:34.164Z,1028.66
2019-03-26T07:33:34.070Z,1028.69
2019-03-26T07:34:33.982Z,1028.67
2019-03-26T07:35:33.908Z,1028.69
2019-03-26T07:36:33.816Z,1028.70
2019-03-26T07:37:44.541Z,1028.79
2019-03-26T07:38:33.651Z,1028.71
2019-03-26T07:39:33.564Z,1028.69
2019-03-26T07:40:33.494Z,1028.69
2019-03-26T07:41:33.401Z,1028.70
2019-03-26T07:42:33.320Z,1028.71
2019-03-26T07:43:33.234Z,1028.73
2019-03-26T07:44:33.136Z,1028.82
2019-03-26T07:45:33.062Z,1028.90
2019-03-26T07:46:32.975Z,1028.91
2019-03-26T07:47:32.919Z,1028.88
2019-03-26T07:48:32.803Z,1028.86
2019-03-26T07:49:32.720Z,1028.87
2019-03-26T07:50:32.645Z,1028.85
2019-03-26T07:51:32.554Z,1028.85
2019-03-26T07:52:32.481Z,1028.87
2019-03-26T07:53:32.403Z,1028.85
2019-03-26T07:54:32.716Z,1028.89
2019-03-26T07:55:32.245Z,1028.92
2019-03-26T07:56:32.141Z,1029.02
2019-03-26T07:57:32.075Z,1028.94
2019-03-26T07:58:33.356Z,1028.89
2019-03-26T07:59:31.886Z,1028.96
2019-03-26T08:00:31.806Z,1029.04
2019-03-26T08:01:31.711Z,1029.08
2019-03-26T08:02:31.648Z,1029.17
2019-03-26T08:03:31.560Z,1029.22
2019-03-26T08:04:31.473Z,1029.23
2019-03-26T08:05:31.388Z,1029.24
2019-03-26T08:06:31.299Z,1029.34
2019-03-26T08:07:31.237Z,1029.22
2019-03-26T08:08:31.133Z,1029.06
2019-03-26T08:09:31.867Z,1028.98
2019-03-26T08:10:30.977Z,1028.99
2019-03-26T08:11:30.906Z,1029.06
2019-03-26T08:12:32.833Z,1029.05
2019-03-26T08:13:30.720Z,1029.00
2019-03-26T08:14:30.651Z,1029.04
2019-03-26T08:15:30.554Z,1029.02
2019-03-26T08:16:30.468Z,1029.04
2019-03-26T08:17:30.417Z,1029.00
2019-03-26T08:18:30.300Z,1028.95
2019-03-26T08:19:30.225Z,1028.98
2019-03-26T08:20:30.139Z,1029.02
2019-03-26T08:21:30.059Z,1029.09
2019-03-26T08:22:29.989Z,1029.11
2019-03-26T08:23:29.897Z,1029.14
2019-03-26T08:24:29.812Z,1029.14
2019-03-26T08:25:29.743Z,1029.17
2019-03-26T08:26:29.641Z,1029.15
2019-03-26T08:27:29.568Z,1029.14
2019-03-26T08:28:29.471Z,1029.12
2019-03-26T08:29:29.400Z,1029.11
2019-03-26T08:30:29.302Z,1029.08
2019-03-26T08:31:29.231Z,1029.05
2019-03-26T08:32:29.152Z,1029.05
2019-03-26T08:33:29.056Z,1029.06
2019-03-26T08:34:28.982Z,1029.02
2019-03-26T08:35:28.886Z,1029.04
2019-03-26T08:36:29.305Z,1029.07
2019-03-26T08:37:28.737Z,1029.04
2019-03-26T08:38:28.639Z,1028.95
2019-03-26T08:39:28.563Z,1028.97
2019-03-26T08:40:28.471Z,1028.98
2019-03-26T08:41:28.389Z,1028.95
2019-03-26T08:42:28.328Z,1029.02
2019-03-26T08:43:28.266Z,1029.05
2019-03-26T08:44:28.136Z,1029.11
2019-03-26T08:45:28.064Z,1029.07
2019-03-26T08:46:27.970Z,1029.10
2019-03-26T08:47:27.917Z,1029.17
2019-03-26T08:48:27.808Z,1029.17
2019-03-26T08:49:30.558Z,1029.22
2019-03-26T08:50:27.640Z,1029.33
2019-03-26T08:51:27.555Z,1029.28
2019-03-26T08:52:27.493Z,1029.35
2019-03-26T08:53:27.390Z,1029.71
2019-03-26T08:54:27.305Z,1029.71
2019-03-26T08:55:27.240Z,1029.38
2019-03-26T08:56:27.141Z,1029.29
2019-03-26T08:57:27.085Z,1029.41
2019-03-26T08:58:26.974Z,1029.45
2019-03-26T08:59:26.910Z,1029.34
2019-03-26T09:00:26.812Z,1029.32
2019-03-26T09:01:26.736Z,1029.33
2019-03-26T09:02:26.671Z,1029.43
2019-03-26T09:03:26.571Z,1029.41
2019-03-26T09:04:27.049Z,1029.34
2019-03-26T09:05:26.395Z,1029.32
2019-03-26T09:06:26.326Z,1029.30
2019-03-26T09:07:26.243Z,1029.16
2019-03-26T09:08:26.169Z,1029.00
2019-03-26T09:09:26.078Z,1029.02
2019-03-26T09:10:25.984Z,1029.12
2019-03-26T09:11:25.908Z,1029.32
2019-03-26T09:12:25.837Z,1029.33
2019-03-26T09:13:25.746Z,1029.23
2019-03-26T09:14:25.657Z,1028.98
2019-03-26T09:15:25.587Z,1028.88
2019-03-26T09:16:25.491Z,1028.93
2019-03-26T09:17:25.434Z,1029.00
2019-03-26T09:18:25.329Z,1028.97
2019-03-26T09:19:25.252Z,1028.88
2019-03-26T09:20:25.163Z,1028.82
2019-03-26T09:21:25.086Z,1028.87
2019-03-26T09:22:25.014Z,1028.82
2019-03-26T09:23:24.924Z,1028.89
2019-03-26T09:24:24.835Z,1028.90
2019-03-26T09:25:24.760Z,1028.95
2019-03-26T09:26:24.668Z,1029.04
2019-03-26T09:27:24.601Z,1029.11
2019-03-26T09:28:24.501Z,1029.18
2019-03-26T09:29:24.430Z,1029.27
2019-03-26T09:30:24.341Z,1029.35
2019-03-26T09:31:24.262Z,1029.36
2019-03-26T09:32:24.194Z,1029.30
2019-03-26T09:33:24.093Z,1029.45
2019-03-26T09:34:24.013Z,1029.64
2019-03-26T09:35:23.931Z,1029.98
2019-03-26T09:36:23.847Z,1029.91
2019-03-26T09:37:23.778Z,1029.49
2019-03-26T09:38:23.687Z,1029.35
2019-03-26T09:39:23.600Z,1029.26
2019-03-26T09:40:23.525Z,1029.22
2019-03-26T09:41:23.445Z,1029.17
2019-03-26T09:42:23.365Z,1029.19
2019-03-26T09:43:23.274Z,1029.15
2019-03-26T09:44:23.229Z,1029.06
2019-03-26T09:45:23.120Z,1029.19
2019-03-26T09:46:23.033Z,1029.34
2019-03-26T09:47:22.976Z,1029.51
2019-03-26T09:48:22.863Z,1029.52
2019-03-26T09:49:22.799Z,1029.39
2019-03-26T09:50:22.699Z,1029.15
2019-03-26T09:51:22.630Z,1028.97
2019-03-26T09:52:22.563Z,1028.96
2019-03-26T09:53:22.454Z,1029.01
2019-03-26T09:54:22.378Z,1028.96
2019-03-26T09:55:22.295Z,1028.97
2019-03-26T09:56:29.147Z,1028.98
2019-03-26T09:57:22.148Z,1028.98
2019-03-26T09:58:22.046Z,1029.01
2019-03-26T09:59:21.970Z,1029.05
2019-03-26T10:00:21.886Z,1029.13
2019-03-26T10:01:21.795Z,1029.19
2019-03-26T10:02:21.756Z,1029.26
2019-03-26T10:03:21.638Z,1029.21
2019-03-26T10:04:21.553Z,1029.26
2019-03-26T10:05:21.479Z,1029.19
2019-03-26T10:06:23.762Z,1029.14
2019-03-26T10:07:22.056Z,1029.16
2019-03-26T10:08:21.244Z,1029.10
2019-03-26T10:09:21.159Z,1029.11
2019-03-26T10:10:21.052Z,1029.09
2019-03-26T10:11:20.982Z,1029.05
2019-03-26T10:12:20.891Z,1028.97
2019-03-26T10:13:20.831Z,1029.00
2019-03-26T10:14:20.735Z,1029.03
2019-03-26T10:15:20.650Z,1029.04
2019-03-26T10:16:20.564Z,1029.09
2019-03-26T10:17:20.479Z,1029.12
2019-03-26T10:18:20.415Z,1029.13
2019-03-26T10:19:20.322Z,1029.11
2019-03-26T10:20:20.238Z,1029.17
2019-03-26T10:21:20.148Z,1029.22
2019-03-26T10:22:20.285Z,1029.23
2019-03-26T10:23:20.000Z,1029.22
2019-03-26T10:24:19.909Z,1029.29
2019-03-26T10:25:19.822Z,1029.32
2019-03-26T10:26:19.738Z,1029.25
2019-03-26T10:27:19.662Z,1029.15
2019-03-26T10:28:19.583Z,1029.17
2019-03-26T10:29:29.911Z,1029.18
2019-03-26T10:30:19.429Z,1029.11
2019-03-26T10:31:19.325Z,1029.05
2019-03-26T10:32:19.253Z,1029.06
2019-03-26T10:33:19.175Z,1028.99
2019-03-26T10:34:19.086Z,1029.09
2019-03-26T10:35:18.999Z,1029.03
2019-03-26T10:36:18.916Z,1028.97
2019-03-26T10:37:18.844Z,1029.01
2019-03-26T10:38:18.765Z,1028.98
2019-03-26T10:39:18.669Z,1028.89
2019-03-26T10:40:18.591Z,1029.00
2019-03-26T10:41:18.791Z,1028.99
2019-03-26T10:42:18.423Z,1029.02
2019-03-26T10:43:18.350Z,1029.02
2019-03-26T10:44:18.262Z,1029.12
2019-03-26T10:45:18.174Z,1029.15
2019-03-26T10:46:18.101Z,1029.16
2019-03-26T10:47:18.008Z,1029.19
2019-03-26T10:48:17.958Z,1029.32
2019-03-26T10:49:17.844Z,1029.30
2019-03-26T10:50:17.772Z,1029.34
2019-03-26T10:51:17.682Z,1029.28
2019-03-26T10:52:17.637Z,1029.30
2019-03-26T10:53:17.529Z,1029.29
2019-03-26T10:54:17.440Z,1029.28
2019-03-26T10:55:17.359Z,1029.33
2019-03-26T10:56:17.272Z,1029.27
2019-03-26T10:57:17.191Z,1029.29
2019-03-26T10:58:17.122Z,1029.27
2019-03-26T10:59:17.034Z,1029.28
2019-03-26T11:00:16.946Z,1029.22
2019-03-26T11:01:16.860Z,1029.17
2019-03-26T11:02:16.779Z,1029.15
2019-03-26T11:03:16.718Z,1029.12
2019-03-26T11:04:16.613Z,1029.05
2019-03-26T11:05:16.545Z,1029.07
2019-03-26T11:06:16.461Z,1029.01
2019-03-26T11:07:16.364Z,1029.04
2019-03-26T11:08:16.288Z,1029.06
2019-03-26T11:09:24.010Z,1029.10
2019-03-26T11:10:16.133Z,1029.08
2019-03-26T11:11:16.037Z,1029.16
2019-03-26T11:12:15.968Z,1029.24
2019-03-26T11:13:15.888Z,1029.29
2019-03-26T11:14:15.803Z,1029.33
2019-03-26T11:15:15.723Z,1029.41
2019-03-26T11:16:15.628Z,1029.39
2019-03-26T11:17:15.555Z,1029.38
2019-03-26T11:18:15.488Z,1029.34
2019-03-26T11:19:15.383Z,1029.34
2019-03-26T11:20:15.308Z,1029.31
2019-03-26T11:21:15.221Z,1029.34
2019-03-26T11:22:15.142Z,1029.39
2019-03-26T11:23:15.080Z,1029.45
2019-03-26T11:24:14.979Z,1029.50
2019-03-26T11:25:14.903Z,1029.49
2019-03-26T11:26:14.838Z,1029.51
2019-03-26T11:27:14.732Z,1029.47
2019-03-26T11:28:14.671Z,1029.50
2019-03-26T11:29:14.585Z,1029.47
2019-03-26T11:30:14.507Z,1029.49
2019-03-26T11:31:14.433Z,1029.48
2019-03-26T11:32:14.334Z,1029.45
2019-03-26T11:33:14.262Z,1029.35
2019-03-26T11:34:14.173Z,1029.36
2019-03-26T11:35:14.082Z,1029.35
2019-03-26T11:36:14.010Z,1029.30
2019-03-26T11:37:13.924Z,1029.35
2019-03-26T11:38:13.867Z,1029.40
2019-03-26T11:39:13.767Z,1029.35
2019-03-26T11:40:13.689Z,1029.32
2019-03-26T11:41:13.607Z,1029.24
2019-03-26T11:42:13.533Z,1029.18
2019-03-26T11:43:13.454Z,1029.11
2019-03-26T11:44:13.370Z,1029.14
2019-03-26T11:45:13.293Z,1029.15
2019-03-26T11:46:13.238Z,1029.14
2019-03-26T11:47:13.128Z,1029.12
2019-03-26T11:48:13.115Z,1029.16
2019-03-26T11:49:12.970Z,1029.18
2019-03-26T11:50:12.906Z,1029.18
2019-03-26T11:51:12.795Z,1029.11
2019-03-26T11:52:12.721Z,1029.07
2019-03-26T11:53:12.648Z,1028.94
2019-03-26T11:54:12.564Z,1029.03
2019-03-26T11:55:12.471Z,1029.05
2019-03-26T11:56:12.405Z,1029.07
2019-03-26T11:57:12.317Z,1029.19
2019-03-26T11:58:12.249Z,1029.17
2019-03-26T11:59:12.157Z,1029.13
2019-03-26T12:00:12.086Z,1029.03
2019-03-26T12:01:11.995Z,1028.83
2019-03-26T12:02:11.984Z,1028.81
2019-03-26T12:03:11.843Z,1028.74
2019-03-26T12:04:11.784Z,1028.82